sensor_id;sensor_type;location;lat;lon;timestamp;P1;durP1;ratioP1;P2;durP2;ratioP2
42668;SDS011;29384;42.028;21.388;2023-01-16T00:01:55;72.90;;;33.05;;
42668;SDS011;29384;42.028;21.388;2023-01-16T00:04:21;77.93;;;33.47;;
42668;SDS011;29384;42.028;21.388;2023-01-16T00:06:46;78.13;;;35.60;;
42668;SDS011;29384;42.028;21.388;2023-01-16T00:09:12;70.60;;;34.78;;
42668;SDS011;29384;42.028;21.388;2023-01-16T00:11:37;77.90;;;33.88;;
42668;SDS011;29384;42.028;21.388;2023-01-16T00:17:05;77.05;;;32.88;;
42668;SDS011;29384;42.028;21.388;2023-01-16T00:19:30;67.50;;;29.88;;
42668;SDS011;29384;42.028;21.388;2023-01-16T00:21:56;71.53;;;31.60;;
42668;SDS011;29384;42.028;21.388;2023-01-16T00:24:21;69.63;;;34.53;;
42668;SDS011;29384;42.028;21.388;2023-01-16T00:26:49;72.70;;;32.80;;
42668;SDS011;29384;42.028;21.388;2023-01-16T00:32:17;72.50;;;32.55;;
42668;SDS011;29384;42.028;21.388;2023-01-16T00:34:42;76.10;;;33.20;;
42668;SDS011;29384;42.028;21.388;2023-01-16T00:37:08;75.95;;;35.40;;
42668;SDS011;29384;42.028;21.388;2023-01-16T00:39:33;77.63;;;34.30;;
42668;SDS011;29384;42.028;21.388;2023-01-16T00:41:58;76.03;;;36.10;;
42668;SDS011;29384;42.028;21.388;2023-01-16T00:44:24;72.57;;;32.38;;
42668;SDS011;29384;42.028;21.388;2023-01-16T00:46:49;79.32;;;36.53;;
42668;SDS011;29384;42.028;21.388;2023-01-16T00:49:15;76.13;;;34.45;;
42668;SDS011;29384;42.028;21.388;2023-01-16T00:51:40;77.45;;;35.35;;
42668;SDS011;29384;42.028;21.388;2023-01-16T00:54:05;71.25;;;32.83;;
42668;SDS011;29384;42.028;21.388;2023-01-16T00:56:30;76.95;;;33.78;;
42668;SDS011;29384;42.028;21.388;2023-01-16T01:01:58;66.22;;;32.30;;
42668;SDS011;29384;42.028;21.388;2023-01-16T01:04:23;71.22;;;33.25;;
42668;SDS011;29384;42.028;21.388;2023-01-16T01:06:49;73.03;;;35.80;;
42668;SDS011;29384;42.028;21.388;2023-01-16T01:09:15;84.70;;;35.42;;
42668;SDS011;29384;42.028;21.388;2023-01-16T01:11:40;66.80;;;31.17;;
42668;SDS011;29384;42.028;21.388;2023-01-16T01:17:09;54.85;;;25.70;;
42668;SDS011;29384;42.028;21.388;2023-01-16T01:19:34;63.28;;;28.17;;
42668;SDS011;29384;42.028;21.388;2023-01-16T01:22:00;54.90;;;29.13;;
42668;SDS011;29384;42.028;21.388;2023-01-16T01:24:25;55.33;;;27.45;;
42668;SDS011;29384;42.028;21.388;2023-01-16T01:26:50;56.05;;;26.92;;
42668;SDS011;29384;42.028;21.388;2023-01-16T01:32:18;54.72;;;27.20;;
42668;SDS011;29384;42.028;21.388;2023-01-16T01:34:44;65.25;;;27.55;;
42668;SDS011;29384;42.028;21.388;2023-01-16T01:37:09;61.90;;;28.05;;
42668;SDS011;29384;42.028;21.388;2023-01-16T01:39:35;61.38;;;28.75;;
42668;SDS011;29384;42.028;21.388;2023-01-16T01:42:00;54.45;;;27.85;;
42668;SDS011;29384;42.028;21.388;2023-01-16T01:47:49;62.65;;;28.48;;
42668;SDS011;29384;42.028;21.388;2023-01-16T01:53:12;63.40;;;30.55;;
42668;SDS011;29384;42.028;21.388;2023-01-16T01:55:39;66.85;;;30.45;;
42668;SDS011;29384;42.028;21.388;2023-01-16T01:58:06;61.45;;;27.85;;
42668;SDS011;29384;42.028;21.388;2023-01-16T02:00:31;69.07;;;27.75;;
42668;SDS011;29384;42.028;21.388;2023-01-16T02:05:55;54.70;;;26.50;;
42668;SDS011;29384;42.028;21.388;2023-01-16T02:08:24;54.17;;;26.52;;
42668;SDS011;29384;42.028;21.388;2023-01-16T02:10:56;55.45;;;27.70;;
42668;SDS011;29384;42.028;21.388;2023-01-16T02:13:23;50.25;;;25.38;;
42668;SDS011;29384;42.028;21.388;2023-01-16T02:15:49;50.00;;;26.08;;
42668;SDS011;29384;42.028;21.388;2023-01-16T02:18:32;62.92;;;27.67;;
42668;SDS011;29384;42.028;21.388;2023-01-16T02:44:31;49.72;;;22.50;;
42668;SDS011;29384;42.028;21.388;2023-01-16T02:49:30;51.55;;;24.55;;
42668;SDS011;29384;42.028;21.388;2023-01-16T02:52:14;54.85;;;23.50;;
42668;SDS011;29384;42.028;21.388;2023-01-16T02:54:46;55.17;;;22.92;;
42668;SDS011;29384;42.028;21.388;2023-01-16T02:57:17;46.25;;;23.13;;
42668;SDS011;29384;42.028;21.388;2023-01-16T02:59:43;46.63;;;21.55;;
42668;SDS011;29384;42.028;21.388;2023-01-16T03:02:09;52.00;;;23.55;;
42668;SDS011;29384;42.028;21.388;2023-01-16T03:04:50;47.92;;;22.55;;
42668;SDS011;29384;42.028;21.388;2023-01-16T03:07:21;53.92;;;22.13;;
42668;SDS011;29384;42.028;21.388;2023-01-16T03:12:22;50.67;;;23.98;;
42668;SDS011;29384;42.028;21.388;2023-01-16T03:17:32;56.17;;;24.48;;
42668;SDS011;29384;42.028;21.388;2023-01-16T03:22:51;57.78;;;25.38;;
42668;SDS011;29384;42.028;21.388;2023-01-16T03:30:47;50.22;;;23.63;;
42668;SDS011;29384;42.028;21.388;2023-01-16T03:35:46;57.83;;;24.48;;
42668;SDS011;29384;42.028;21.388;2023-01-16T03:38:14;52.17;;;25.55;;
42668;SDS011;29384;42.028;21.388;2023-01-16T03:40:42;52.47;;;24.50;;
42668;SDS011;29384;42.028;21.388;2023-01-16T03:46:23;44.35;;;21.20;;
42668;SDS011;29384;42.028;21.388;2023-01-16T03:48:52;52.13;;;24.85;;
42668;SDS011;29384;42.028;21.388;2023-01-16T03:51:23;61.38;;;26.73;;
42668;SDS011;29384;42.028;21.388;2023-01-16T03:56:48;54.95;;;26.02;;
42668;SDS011;29384;42.028;21.388;2023-01-16T04:02:20;43.17;;;23.07;;
42668;SDS011;29384;42.028;21.388;2023-01-16T04:07:29;53.97;;;23.52;;
42668;SDS011;29384;42.028;21.388;2023-01-16T04:09:56;42.17;;;21.80;;
42668;SDS011;29384;42.028;21.388;2023-01-16T04:12:23;51.47;;;22.25;;
42668;SDS011;29384;42.028;21.388;2023-01-16T04:17:51;41.37;;;20.13;;
42668;SDS011;29384;42.028;21.388;2023-01-16T04:23:19;40.05;;;19.35;;
42668;SDS011;29384;42.028;21.388;2023-01-16T04:25:45;50.53;;;23.67;;
42668;SDS011;29384;42.028;21.388;2023-01-16T04:28:10;48.20;;;23.80;;
42668;SDS011;29384;42.028;21.388;2023-01-16T04:30:35;50.57;;;22.80;;
42668;SDS011;29384;42.028;21.388;2023-01-16T04:33:01;45.23;;;23.20;;
42668;SDS011;29384;42.028;21.388;2023-01-16T04:35:27;49.77;;;22.37;;
42668;SDS011;29384;42.028;21.388;2023-01-16T04:37:52;51.80;;;22.97;;
42668;SDS011;29384;42.028;21.388;2023-01-16T04:40:17;53.10;;;22.97;;
42668;SDS011;29384;42.028;21.388;2023-01-16T04:42:43;51.57;;;22.83;;
42668;SDS011;29384;42.028;21.388;2023-01-16T04:48:14;50.13;;;24.30;;
42668;SDS011;29384;42.028;21.388;2023-01-16T04:50:40;46.57;;;23.23;;
42668;SDS011;29384;42.028;21.388;2023-01-16T04:53:05;44.37;;;23.27;;
42668;SDS011;29384;42.028;21.388;2023-01-16T04:55:30;44.90;;;23.07;;
42668;SDS011;29384;42.028;21.388;2023-01-16T04:57:55;54.00;;;22.03;;
42668;SDS011;29384;42.028;21.388;2023-01-16T05:03:23;48.80;;;25.87;;
42668;SDS011;29384;42.028;21.388;2023-01-16T05:05:48;46.17;;;23.60;;
42668;SDS011;29384;42.028;21.388;2023-01-16T05:08:14;63.90;;;24.63;;
42668;SDS011;29384;42.028;21.388;2023-01-16T05:10:42;45.77;;;23.63;;
42668;SDS011;29384;42.028;21.388;2023-01-16T05:13:07;55.00;;;23.60;;
42668;SDS011;29384;42.028;21.388;2023-01-16T05:15:33;49.83;;;22.27;;
42668;SDS011;29384;42.028;21.388;2023-01-16T05:17:58;50.83;;;21.80;;
42668;SDS011;29384;42.028;21.388;2023-01-16T05:20:23;50.10;;;22.93;;
42668;SDS011;29384;42.028;21.388;2023-01-16T05:22:49;45.30;;;23.07;;
42668;SDS011;29384;42.028;21.388;2023-01-16T05:25:14;50.70;;;23.97;;
42668;SDS011;29384;42.028;21.388;2023-01-16T05:27:39;38.17;;;20.23;;
42668;SDS011;29384;42.028;21.388;2023-01-16T05:33:07;38.88;;;20.27;;
42668;SDS011;29384;42.028;21.388;2023-01-16T05:35:32;38.53;;;21.10;;
42668;SDS011;29384;42.028;21.388;2023-01-16T05:37:58;45.67;;;21.23;;
42668;SDS011;29384;42.028;21.388;2023-01-16T05:40:23;49.50;;;23.13;;
42668;SDS011;29384;42.028;21.388;2023-01-16T05:42:48;37.73;;;21.00;;
42668;SDS011;29384;42.028;21.388;2023-01-16T05:48:17;48.23;;;20.40;;
42668;SDS011;29384;42.028;21.388;2023-01-16T05:50:42;41.27;;;20.20;;
42668;SDS011;29384;42.028;21.388;2023-01-16T05:53:07;38.80;;;20.23;;
42668;SDS011;29384;42.028;21.388;2023-01-16T05:55:42;34.15;;;19.25;;
42668;SDS011;29384;42.028;21.388;2023-01-16T05:58:08;42.65;;;19.25;;
42668;SDS011;29384;42.028;21.388;2023-01-16T06:03:37;32.42;;;16.95;;
42668;SDS011;29384;42.028;21.388;2023-01-16T06:06:02;39.55;;;18.77;;
42668;SDS011;29384;42.028;21.388;2023-01-16T06:08:28;31.67;;;16.75;;
42668;SDS011;29384;42.028;21.388;2023-01-16T06:10:53;35.97;;;16.10;;
42668;SDS011;29384;42.028;21.388;2023-01-16T06:13:19;34.78;;;17.88;;
42668;SDS011;29384;42.028;21.388;2023-01-16T06:15:44;34.33;;;16.50;;
42668;SDS011;29384;42.028;21.388;2023-01-16T06:18:09;37.72;;;16.75;;
42668;SDS011;29384;42.028;21.388;2023-01-16T06:20:35;41.58;;;18.40;;
42668;SDS011;29384;42.028;21.388;2023-01-16T06:23:01;40.40;;;18.33;;
42668;SDS011;29384;42.028;21.388;2023-01-16T06:25:26;33.17;;;17.43;;
42668;SDS011;29384;42.028;21.388;2023-01-16T06:27:51;33.30;;;18.20;;
42668;SDS011;29384;42.028;21.388;2023-01-16T06:33:19;34.90;;;16.60;;
42668;SDS011;29384;42.028;21.388;2023-01-16T06:35:44;32.97;;;16.40;;
42668;SDS011;29384;42.028;21.388;2023-01-16T06:38:09;31.05;;;15.90;;
42668;SDS011;29384;42.028;21.388;2023-01-16T06:40:35;28.40;;;15.35;;
42668;SDS011;29384;42.028;21.388;2023-01-16T06:43:00;30.02;;;14.85;;
42668;SDS011;29384;42.028;21.388;2023-01-16T06:48:28;32.60;;;16.27;;
42668;SDS011;29384;42.028;21.388;2023-01-16T06:50:53;35.13;;;16.87;;
42668;SDS011;29384;42.028;21.388;2023-01-16T06:53:19;37.78;;;16.73;;
42668;SDS011;29384;42.028;21.388;2023-01-16T06:55:44;31.42;;;17.08;;
42668;SDS011;29384;42.028;21.388;2023-01-16T06:58:10;29.90;;;16.35;;
42668;SDS011;29384;42.028;21.388;2023-01-16T07:03:38;33.13;;;16.13;;
42668;SDS011;29384;42.028;21.388;2023-01-16T07:06:03;32.97;;;16.02;;
42668;SDS011;29384;42.028;21.388;2023-01-16T07:08:29;30.10;;;16.00;;
42668;SDS011;29384;42.028;21.388;2023-01-16T07:10:57;33.47;;;16.23;;
42668;SDS011;29384;42.028;21.388;2023-01-16T07:13:22;37.22;;;16.67;;
42668;SDS011;29384;42.028;21.388;2023-01-16T07:18:55;38.97;;;17.23;;
42668;SDS011;29384;42.028;21.388;2023-01-16T07:21:39;29.88;;;14.55;;
42668;SDS011;29384;42.028;21.388;2023-01-16T07:24:24;56.90;;;22.13;;
42668;SDS011;29384;42.028;21.388;2023-01-16T07:26:53;53.22;;;24.40;;
42668;SDS011;29384;42.028;21.388;2023-01-16T07:29:22;62.17;;;27.90;;
42668;SDS011;29384;42.028;21.388;2023-01-16T07:31:47;57.35;;;28.70;;
42668;SDS011;29384;42.028;21.388;2023-01-16T07:34:13;65.28;;;27.38;;
42668;SDS011;29384;42.028;21.388;2023-01-16T07:36:38;64.18;;;26.52;;
42668;SDS011;29384;42.028;21.388;2023-01-16T07:39:03;62.00;;;28.42;;
42668;SDS011;29384;42.028;21.388;2023-01-16T07:41:28;55.22;;;26.05;;
42668;SDS011;29384;42.028;21.388;2023-01-16T07:43:54;55.33;;;25.80;;
42668;SDS011;29384;42.028;21.388;2023-01-16T07:46:19;61.03;;;27.63;;
42668;SDS011;29384;42.028;21.388;2023-01-16T07:48:44;55.75;;;28.05;;
42668;SDS011;29384;42.028;21.388;2023-01-16T07:51:10;60.20;;;27.70;;
42668;SDS011;29384;42.028;21.388;2023-01-16T07:53:35;75.15;;;29.35;;
42668;SDS011;29384;42.028;21.388;2023-01-16T07:56:01;58.28;;;28.83;;
42668;SDS011;29384;42.028;21.388;2023-01-16T07:58:26;64.45;;;31.48;;
42668;SDS011;29384;42.028;21.388;2023-01-16T08:03:55;61.22;;;28.70;;
42668;SDS011;29384;42.028;21.388;2023-01-16T08:06:20;68.63;;;31.40;;
42668;SDS011;29384;42.028;21.388;2023-01-16T08:08:45;63.38;;;30.33;;
42668;SDS011;29384;42.028;21.388;2023-01-16T08:11:11;73.00;;;31.90;;
42668;SDS011;29384;42.028;21.388;2023-01-16T08:13:54;73.95;;;32.70;;
42668;SDS011;29384;42.028;21.388;2023-01-16T08:16:20;63.83;;;31.08;;
42668;SDS011;29384;42.028;21.388;2023-01-16T08:18:45;72.28;;;32.90;;
42668;SDS011;29384;42.028;21.388;2023-01-16T08:21:13;76.35;;;31.13;;
42668;SDS011;29384;42.028;21.388;2023-01-16T08:23:39;89.43;;;37.83;;
42668;SDS011;29384;42.028;21.388;2023-01-16T08:26:05;72.55;;;35.08;;
42668;SDS011;29384;42.028;21.388;2023-01-16T08:28:30;81.25;;;36.72;;
42668;SDS011;29384;42.028;21.388;2023-01-16T08:33:58;71.80;;;33.25;;
42668;SDS011;29384;42.028;21.388;2023-01-16T08:36:24;83.85;;;35.95;;
42668;SDS011;29384;42.028;21.388;2023-01-16T08:38:50;77.30;;;33.17;;
42668;SDS011;29384;42.028;21.388;2023-01-16T08:41:16;81.22;;;33.17;;
42668;SDS011;29384;42.028;21.388;2023-01-16T08:44:00;73.88;;;34.75;;
42668;SDS011;29384;42.028;21.388;2023-01-16T08:46:44;73.80;;;34.92;;
42668;SDS011;29384;42.028;21.388;2023-01-16T08:49:28;67.32;;;34.78;;
42668;SDS011;29384;42.028;21.388;2023-01-16T08:52:12;69.40;;;33.42;;
42668;SDS011;29384;42.028;21.388;2023-01-16T08:54:38;75.30;;;37.08;;
42668;SDS011;29384;42.028;21.388;2023-01-16T08:57:04;71.47;;;35.17;;
42668;SDS011;29384;42.028;21.388;2023-01-16T08:59:30;70.38;;;34.78;;
42668;SDS011;29384;42.028;21.388;2023-01-16T09:01:59;58.28;;;32.83;;
42668;SDS011;29384;42.028;21.388;2023-01-16T09:04:24;69.95;;;31.58;;
42668;SDS011;29384;42.028;21.388;2023-01-16T09:06:49;63.83;;;31.65;;
42668;SDS011;29384;42.028;21.388;2023-01-16T09:09:15;62.63;;;33.97;;
42668;SDS011;29384;42.028;21.388;2023-01-16T09:11:40;67.88;;;31.45;;
42668;SDS011;29384;42.028;21.388;2023-01-16T09:14:24;57.90;;;30.13;;
42668;SDS011;29384;42.028;21.388;2023-01-16T09:16:49;61.25;;;30.83;;
42668;SDS011;29384;42.028;21.388;2023-01-16T09:19:15;60.67;;;31.40;;
42668;SDS011;29384;42.028;21.388;2023-01-16T09:21:40;63.67;;;30.85;;
42668;SDS011;29384;42.028;21.388;2023-01-16T09:24:05;69.30;;;30.83;;
42668;SDS011;29384;42.028;21.388;2023-01-16T09:26:30;77.22;;;31.58;;
42668;SDS011;29384;42.028;21.388;2023-01-16T09:28:56;55.17;;;28.80;;
42668;SDS011;29384;42.028;21.388;2023-01-16T09:34:24;83.18;;;30.90;;
42668;SDS011;29384;42.028;21.388;2023-01-16T09:36:49;66.97;;;30.90;;
42668;SDS011;29384;42.028;21.388;2023-01-16T09:39:15;63.33;;;31.35;;
42668;SDS011;29384;42.028;21.388;2023-01-16T09:41:44;62.78;;;31.75;;
42668;SDS011;29384;42.028;21.388;2023-01-16T09:44:31;58.08;;;31.30;;
42668;SDS011;29384;42.028;21.388;2023-01-16T09:46:57;57.13;;;27.08;;
42668;SDS011;29384;42.028;21.388;2023-01-16T09:49:28;64.85;;;26.83;;
42668;SDS011;29384;42.028;21.388;2023-01-16T09:52:02;63.75;;;28.52;;
42668;SDS011;29384;42.028;21.388;2023-01-16T09:54:52;71.57;;;29.05;;
42668;SDS011;29384;42.028;21.388;2023-01-16T09:57:37;65.25;;;28.73;;
